sensor_id;sensor_type;location;lat;lon;timestamp;pressure;altitude;pressure_sealevel;temperature;humidity
74659;BME280;63186;51.204;6.536;2024-02-21T00:02:23;101927.47;;;7.90;100.00
74659;BME280;63186;51.204;6.536;2024-02-21T00:04:49;101927.69;;;7.88;100.00
74659;BME280;63186;51.204;6.536;2024-02-21T00:07:14;101918.91;;;7.86;100.00
74659;BME280;63186;51.204;6.536;2024-02-21T00:09:40;101913.97;;;7.83;100.00
74659;BME280;63186;51.204;6.536;2024-02-21T00:12:05;101920.56;;;7.87;100.00
74659;BME280;63186;51.204;6.536;2024-02-21T00:14:31;101914.25;;;7.87;100.00
74659;BME280;63186;51.204;6.536;2024-02-21T00:16:56;101927.16;;;7.86;100.00
74659;BME280;63186;51.204;6.536;2024-02-21T00:19:21;101914.25;;;7.87;100.00
74659;BME280;63186;51.204;6.536;2024-02-21T00:21:47;101909.06;;;7.85;100.00
74659;BME280;63186;51.204;6.536;2024-02-21T00:24:12;101909.31;;;7.84;100.00
74659;BME280;63186;51.204;6.536;2024-02-21T00:26:38;101901.09;;;7.84;100.00
74659;BME280;63186;51.204;6.536;2024-02-21T00:29:03;101903.03;;;7.83;100.00
74659;BME280;63186;51.204;6.536;2024-02-21T00:31:28;101892.88;;;7.84;100.00
74659;BME280;63186;51.204;6.536;2024-02-21T00:33:54;101882.19;;;7.82;100.00
74659;BME280;63186;51.204;6.536;2024-02-21T00:36:19;101876.94;;;7.81;100.00
74659;BME280;63186;51.204;6.536;2024-02-21T00:38:44;101875.84;;;7.82;100.00
74659;BME280;63186;51.204;6.536;2024-02-21T00:41:10;101878.84;;;7.80;100.00
74659;BME280;63186;51.204;6.536;2024-02-21T00:43:35;101883.25;;;7.81;100.00
74659;BME280;63186;51.204;6.536;2024-02-21T00:46:00;101884.66;;;7.84;100.00
74659;BME280;63186;51.204;6.536;2024-02-21T00:48:26;101880.00;;;7.84;100.00
74659;BME280;63186;51.204;6.536;2024-02-21T00:50:51;101886.28;;;7.85;100.00
74659;BME280;63186;51.204;6.536;2024-02-21T00:53:17;101868.47;;;7.82;100.00
74659;BME280;63186;51.204;6.536;2024-02-21T00:55:42;101873.69;;;7.84;100.00
74659;BME280;63186;51.204;6.536;2024-02-21T00:58:08;101874.78;;;7.83;100.00
74659;BME280;63186;51.204;6.536;2024-02-21T01:00:34;101869.31;;;7.83;100.00
74659;BME280;63186;51.204;6.536;2024-02-21T01:02:59;101868.47;;;7.82;100.00
74659;BME280;63186;51.204;6.536;2024-02-21T01:05:25;101859.16;;;7.83;100.00
74659;BME280;63186;51.204;6.536;2024-02-21T01:07:50;101863.53;;;7.84;100.00
74659;BME280;63186;51.204;6.536;2024-02-21T01:10:15;101871.75;;;7.84;100.00
74659;BME280;63186;51.204;6.536;2024-02-21T01:12:41;101867.38;;;7.83;100.00
74659;BME280;63186;51.204;6.536;2024-02-21T01:15:07;101850.94;;;7.83;100.00
74659;BME280;63186;51.204;6.536;2024-02-21T01:17:32;101853.91;;;7.82;100.00
74659;BME280;63186;51.204;6.536;2024-02-21T01:19:58;101850.09;;;7.83;100.00
74659;BME280;63186;51.204;6.536;2024-02-21T01:22:23;101847.38;;;7.83;100.00
74659;BME280;63186;51.204;6.536;2024-02-21T01:24:48;101840.47;;;7.80;100.00
74659;BME280;63186;51.204;6.536;2024-02-21T01:27:14;101833.34;;;7.79;100.00
74659;BME280;63186;51.204;6.536;2024-02-21T01:29:39;101842.41;;;7.80;100.00
74659;BME280;63186;51.204;6.536;2024-02-21T01:32:05;101836.91;;;7.80;100.00
74659;BME280;63186;51.204;6.536;2024-02-21T01:34:30;101823.47;;;7.78;100.00
74659;BME280;63186;51.204;6.536;2024-02-21T01:36:55;101811.69;;;7.78;100.00
74659;BME280;63186;51.204;6.536;2024-02-21T01:39:21;101808.69;;;7.79;100.00
74659;BME280;63186;51.204;6.536;2024-02-21T01:41:46;101814.44;;;7.78;100.00
74659;BME280;63186;51.204;6.536;2024-02-21T01:44:11;101814.44;;;7.78;100.00
74659;BME280;63186;51.204;6.536;2024-02-21T01:46:37;101804.56;;;7.77;100.00
74659;BME280;63186;51.204;6.536;2024-02-21T01:49:02;101808.69;;;7.79;100.00
74659;BME280;63186;51.204;6.536;2024-02-21T01:51:29;101803.47;;;7.78;100.00
74659;BME280;63186;51.204;6.536;2024-02-21T01:53:56;101798.00;;;7.78;100.00
74659;BME280;63186;51.204;6.536;2024-02-21T01:56:23;101792.78;;;7.76;100.00
74659;BME280;63186;51.204;6.536;2024-02-21T01:58:49;101803.47;;;7.78;100.00
74659;BME280;63186;51.204;6.536;2024-02-21T02:01:16;101800.72;;;7.78;100.00
74659;BME280;63186;51.204;6.536;2024-02-21T02:03:42;101791.09;;;7.75;100.00
74659;BME280;63186;51.204;6.536;2024-02-21T02:06:10;101782.34;;;7.73;100.00
74659;BME280;63186;51.204;6.536;2024-02-21T02:08:35;101785.06;;;7.73;100.00
74659;BME280;63186;51.204;6.536;2024-02-21T02:11:01;101776.03;;;7.73;100.00
74659;BME280;63186;51.204;6.536;2024-02-21T02:13:26;101769.47;;;7.74;100.00
74659;BME280;63186;51.204;6.536;2024-02-21T02:15:52;101776.03;;;7.73;100.00
74659;BME280;63186;51.204;6.536;2024-02-21T02:18:19;101758.50;;;7.74;100.00
74659;BME280;63186;51.204;6.536;2024-02-21T02:20:44;101752.47;;;7.72;100.00
74659;BME280;63186;51.204;6.536;2024-02-21T02:23:17;101761.22;;;7.74;100.00
74659;BME280;63186;51.204;6.536;2024-02-21T02:25:43;101747.81;;;7.72;100.00
74659;BME280;63186;51.204;6.536;2024-02-21T02:28:08;101748.63;;;7.73;100.00
74659;BME280;63186;51.204;6.536;2024-02-21T02:30:35;101746.97;;;7.72;100.00
74659;BME280;63186;51.204;6.536;2024-02-21T02:33:02;101757.13;;;7.71;100.00
74659;BME280;63186;51.204;6.536;2024-02-21T02:35:27;101758.22;;;7.70;100.00
74659;BME280;63186;51.204;6.536;2024-02-21T02:37:53;101758.47;;;7.69;100.00
74659;BME280;63186;51.204;6.536;2024-02-21T02:40:18;101762.31;;;7.68;100.00
74659;BME280;63186;51.204;6.536;2024-02-21T02:42:44;101759.00;;;7.66;100.00
74659;BME280;63186;51.204;6.536;2024-02-21T02:45:10;101751.06;;;7.64;100.00
74659;BME280;63186;51.204;6.536;2024-02-21T02:47:35;101751.88;;;7.65;100.00
74659;BME280;63186;51.204;6.536;2024-02-21T02:50:01;101744.22;;;7.67;100.00
74659;BME280;63186;51.204;6.536;2024-02-21T02:52:26;101745.84;;;7.68;100.00
74659;BME280;63186;51.204;6.536;2024-02-21T02:54:52;101736.00;;;7.67;100.00
74659;BME280;63186;51.204;6.536;2024-02-21T02:57:20;101736.00;;;7.67;100.00
74659;BME280;63186;51.204;6.536;2024-02-21T02:59:49;101727.22;;;7.65;100.00
74659;BME280;63186;51.204;6.536;2024-02-21T03:02:15;101719.28;;;7.63;100.00
74659;BME280;63186;51.204;6.536;2024-02-21T03:04:40;101720.09;;;7.64;100.00
74659;BME280;63186;51.204;6.536;2024-02-21T03:07:06;101706.63;;;7.62;100.00
74659;BME280;63186;51.204;6.536;2024-02-21T03:09:31;101702.25;;;7.61;100.00
74659;BME280;63186;51.204;6.536;2024-02-21T03:11:57;101700.59;;;7.60;100.00
74659;BME280;63186;51.204;6.536;2024-02-21T03:14:28;101701.44;;;7.60;100.00
74659;BME280;63186;51.204;6.536;2024-02-21T03:16:53;101688.56;;;7.61;100.00
74659;BME280;63186;51.204;6.536;2024-02-21T03:19:18;101700.59;;;7.60;100.00
74659;BME280;63186;51.204;6.536;2024-02-21T03:21:43;101693.75;;;7.57;100.00
74659;BME280;63186;51.204;6.536;2024-02-21T03:24:09;101683.91;;;7.56;100.00
74659;BME280;63186;51.204;6.536;2024-02-21T03:26:34;101679.47;;;7.55;100.00
74659;BME280;63186;51.204;6.536;2024-02-21T03:28:59;101689.91;;;7.53;100.00
74659;BME280;63186;51.204;6.536;2024-02-21T03:31:25;101688.81;;;7.54;100.00
74659;BME280;63186;51.204;6.536;2024-02-21T03:33:50;101686.06;;;7.54;100.00
74659;BME280;63186;51.204;6.536;2024-02-21T03:36:15;101687.97;;;7.54;100.00
74659;BME280;63186;51.204;6.536;2024-02-21T03:38:41;101686.88;;;7.55;100.00
74659;BME280;63186;51.204;6.536;2024-02-21T03:41:06;101691.53;;;7.54;100.00
74659;BME280;63186;51.204;6.536;2024-02-21T03:43:31;101686.88;;;7.55;100.00
74659;BME280;63186;51.204;6.536;2024-02-21T03:45:57;101677.84;;;7.54;100.00
74659;BME280;63186;51.204;6.536;2024-02-21T03:48:22;101678.94;;;7.53;100.00
74659;BME280;63186;51.204;6.536;2024-02-21T03:50:47;101673.47;;;7.53;100.00
74659;BME280;63186;51.204;6.536;2024-02-21T03:53:12;101666.59;;;7.51;100.00
74659;BME280;63186;51.204;6.536;2024-02-21T03:55:38;101671.53;;;7.54;100.00
74659;BME280;63186;51.204;6.536;2024-02-21T03:58:03;101678.66;;;7.55;100.00
74659;BME280;63186;51.204;6.536;2024-02-21T04:00:28;101671.53;;;7.54;100.00
74659;BME280;63186;51.204;6.536;2024-02-21T04:02:54;101674.28;;;7.54;100.00
74659;BME280;63186;51.204;6.536;2024-02-21T04:05:21;101673.72;;;7.52;100.00
74659;BME280;63186;51.204;6.536;2024-02-21T04:07:46;101669.91;;;7.53;100.00
74659;BME280;63186;51.204;6.536;2024-02-21T04:10:11;101666.06;;;7.54;100.00
74659;BME280;63186;51.204;6.536;2024-02-21T04:12:37;101660.56;;;7.54;100.00
74659;BME280;63186;51.204;6.536;2024-02-21T04:15:04;101663.88;;;7.56;100.00
74659;BME280;63186;51.204;6.536;2024-02-21T04:17:29;101654.28;;;7.53;100.00
74659;BME280;63186;51.204;6.536;2024-02-21T04:20:02;101646.88;;;7.54;100.00
74659;BME280;63186;51.204;6.536;2024-02-21T04:22:30;101647.69;;;7.54;100.00
74659;BME280;63186;51.204;6.536;2024-02-21T04:24:55;101646.59;;;7.55;100.00
74659;BME280;63186;51.204;6.536;2024-02-21T04:27:20;101648.53;;;7.55;100.00
74659;BME280;63186;51.204;6.536;2024-02-21T04:29:46;101639.75;;;7.53;100.00
74659;BME280;63186;51.204;6.536;2024-02-21T04:32:11;101639.22;;;7.51;100.00
74659;BME280;63186;51.204;6.536;2024-02-21T04:34:36;101645.22;;;7.48;100.00
74659;BME280;63186;51.204;6.536;2024-02-21T04:37:02;101648.53;;;7.50;100.00
74659;BME280;63186;51.204;6.536;2024-02-21T04:39:27;101646.84;;;7.49;100.00
74659;BME280;63186;51.204;6.536;2024-02-21T04:41:52;101647.69;;;7.49;100.00
74659;BME280;63186;51.204;6.536;2024-02-21T04:44:18;101637.81;;;7.48;100.00
74659;BME280;63186;51.204;6.536;2024-02-21T04:46:46;101645.22;;;7.48;100.00
74659;BME280;63186;51.204;6.536;2024-02-21T04:49:12;101646.59;;;7.50;100.00
74659;BME280;63186;51.204;6.536;2024-02-21T04:51:37;101644.69;;;7.51;100.00
74659;BME280;63186;51.204;6.536;2024-02-21T04:54:02;101641.38;;;7.49;100.00
74659;BME280;63186;51.204;6.536;2024-02-21T04:56:28;101651.28;;;7.50;100.00
74659;BME280;63186;51.204;6.536;2024-02-21T04:58:54;101646.03;;;7.48;100.00
74659;BME280;63186;51.204;6.536;2024-02-21T05:01:19;101642.47;;;7.48;100.00
74659;BME280;63186;51.204;6.536;2024-02-21T05:03:44;101629.88;;;7.47;100.00
74659;BME280;63186;51.204;6.536;2024-02-21T05:06:09;101640.56;;;7.48;100.00
74659;BME280;63186;51.204;6.536;2024-02-21T05:08:35;101643.56;;;7.47;100.00
74659;BME280;63186;51.204;6.536;2024-02-21T05:11:00;101640.00;;;7.46;100.00
74659;BME280;63186;51.204;6.536;2024-02-21T05:13:26;101635.34;;;7.47;100.00
74659;BME280;63186;51.204;6.536;2024-02-21T05:15:51;101631.78;;;7.46;100.00
74659;BME280;63186;51.204;6.536;2024-02-21T05:18:16;101640.00;;;7.46;100.00
74659;BME280;63186;51.204;6.536;2024-02-21T05:20:42;101634.81;;;7.45;100.00
74659;BME280;63186;51.204;6.536;2024-02-21T05:23:07;101623.84;;;7.45;100.00
74659;BME280;63186;51.204;6.536;2024-02-21T05:25:32;101626.81;;;7.43;100.00
74659;BME280;63186;51.204;6.536;2024-02-21T05:27:57;101624.38;;;7.42;100.00
74659;BME280;63186;51.204;6.536;2024-02-21T05:30:27;101612.88;;;7.40;100.00
74659;BME280;63186;51.204;6.536;2024-02-21T05:32:52;101617.25;;;7.41;100.00
74659;BME280;63186;51.204;6.536;2024-02-21T05:35:17;101622.72;;;7.41;100.00
74659;BME280;63186;51.204;6.536;2024-02-21T05:37:43;101622.72;;;7.41;100.00
74659;BME280;63186;51.204;6.536;2024-02-21T05:40:08;101627.38;;;7.40;100.00
74659;BME280;63186;51.204;6.536;2024-02-21T05:42:34;101618.63;;;7.38;100.00
74659;BME280;63186;51.204;6.536;2024-02-21T05:44:59;101618.63;;;7.38;100.00
74659;BME280;63186;51.204;6.536;2024-02-21T05:47:24;101617.81;;;7.38;100.00
74659;BME280;63186;51.204;6.536;2024-02-21T05:49:50;101617.81;;;7.38;100.00
74659;BME280;63186;51.204;6.536;2024-02-21T05:52:18;101624.34;;;7.37;100.00
74659;BME280;63186;51.204;6.536;2024-02-21T05:54:44;101609.00;;;7.35;100.00
74659;BME280;63186;51.204;6.536;2024-02-21T05:57:09;101610.66;;;7.37;100.00
74659;BME280;63186;51.204;6.536;2024-02-21T05:59:35;101607.09;;;7.36;100.00
74659;BME280;63186;51.204;6.536;2024-02-21T06:02:01;101594.22;;;7.37;100.00
74659;BME280;63186;51.204;6.536;2024-02-21T06:04:29;101584.09;;;7.37;100.00
74659;BME280;63186;51.204;6.536;2024-02-21T06:06:54;101586.00;;;7.37;100.00
74659;BME280;63186;51.204;6.536;2024-02-21T06:09:19;101583.56;;;7.40;100.00
74659;BME280;63186;51.204;6.536;2024-02-21T06:11:45;101580.81;;;7.40;100.00
74659;BME280;63186;51.204;6.536;2024-02-21T06:14:11;101577.25;;;7.40;100.00
74659;BME280;63186;51.204;6.536;2024-02-21T06:16:36;101575.63;;;7.39;100.00
74659;BME280;63186;51.204;6.536;2024-02-21T06:19:02;101565.75;;;7.38;100.00
74659;BME280;63186;51.204;6.536;2024-02-21T06:21:31;101571.50;;;7.41;100.00
74659;BME280;63186;51.204;6.536;2024-02-21T06:23:56;101576.16;;;7.41;100.00
74659;BME280;63186;51.204;6.536;2024-02-21T06:26:21;101570.94;;;7.39;100.00
74659;BME280;63186;51.204;6.536;2024-02-21T06:28:47;101572.06;;;7.38;100.00
74659;BME280;63186;51.204;6.536;2024-02-21T06:31:12;101563.00;;;7.38;100.00
74659;BME280;63186;51.204;6.536;2024-02-21T06:33:37;101560.28;;;7.38;100.00
74659;BME280;63186;51.204;6.536;2024-02-21T06:36:03;101561.34;;;7.37;100.00
74659;BME280;63186;51.204;6.536;2024-02-21T06:38:28;101554.78;;;7.38;100.00
74659;BME280;63186;51.204;6.536;2024-02-21T06:40:54;101544.91;;;7.37;100.00
74659;BME280;63186;51.204;6.536;2024-02-21T06:43:20;101546.56;;;7.38;100.00
74659;BME280;63186;51.204;6.536;2024-02-21T06:45:45;101550.69;;;7.40;100.00
74659;BME280;63186;51.204;6.536;2024-02-21T06:48:16;101546.31;;;7.39;100.00
74659;BME280;63186;51.204;6.536;2024-02-21T06:50:41;101549.03;;;7.39;100.00
74659;BME280;63186;51.204;6.536;2024-02-21T06:53:07;101536.16;;;7.40;100.00
74659;BME280;63186;51.204;6.536;2024-02-21T06:55:32;101544.66;;;7.43;100.00
74659;BME280;63186;51.204;6.536;2024-02-21T06:57:57;101538.34;;;7.43;100.00
74659;BME280;63186;51.204;6.536;2024-02-21T07:00:23;101534.53;;;7.44;100.00
74659;BME280;63186;51.204;6.536;2024-02-21T07:02:48;101538.66;;;7.46;100.00
74659;BME280;63186;51.204;6.536;2024-02-21T07:05:13;101542.75;;;7.49;100.00
74659;BME280;63186;51.204;6.536;2024-02-21T07:07:39;101535.91;;;7.51;100.00
74659;BME280;63186;51.204;6.536;2024-02-21T07:10:06;101539.75;;;7.50;100.00
74659;BME280;63186;51.204;6.536;2024-02-21T07:12:31;101545.78;;;7.52;100.00
74659;BME280;63186;51.204;6.536;2024-02-21T07:14:56;101547.97;;;7.55;100.00
74659;BME280;63186;51.204;6.536;2024-02-21T07:17:22;101549.06;;;7.54;100.00
74659;BME280;63186;51.204;6.536;2024-02-21T07:19:47;101546.03;;;7.56;100.00
74659;BME280;63186;51.204;6.536;2024-02-21T07:22:12;101551.28;;;7.57;100.00
74659;BME280;63186;51.204;6.536;2024-02-21T07:24:37;101552.09;;;7.58;100.00
74659;BME280;63186;51.204;6.536;2024-02-21T07:27:03;101549.34;;;7.58;100.00
74659;BME280;63186;51.204;6.536;2024-02-21T07:29:30;101547.72;;;7.57;100.00
74659;BME280;63186;51.204;6.536;2024-02-21T07:31:55;101549.34;;;7.58;100.00
74659;BME280;63186;51.204;6.536;2024-02-21T07:34:20;101553.75;;;7.59;100.00
74659;BME280;63186;51.204;6.536;2024-02-21T07:36:46;101547.41;;;7.53;100.00
74659;BME280;63186;51.204;6.536;2024-02-21T07:39:11;101547.69;;;7.52;100.00
74659;BME280;63186;51.204;6.536;2024-02-21T07:41:37;101544.97;;;7.52;100.00
74659;BME280;63186;51.204;6.536;2024-02-21T07:44:04;101543.31;;;7.51;100.00
74659;BME280;63186;51.204;6.536;2024-02-21T07:46:30;101539.19;;;7.48;100.00
74659;BME280;63186;51.204;6.536;2024-02-21T07:48:55;101533.72;;;7.48;100.00
74659;BME280;63186;51.204;6.536;2024-02-21T07:51:21;101530.16;;;7.48;100.00
74659;BME280;63186;51.204;6.536;2024-02-21T07:53:46;101526.88;;;7.46;100.00
74659;BME280;63186;51.204;6.536;2024-02-21T07:56:12;101525.22;;;7.45;100.00
74659;BME280;63186;51.204;6.536;2024-02-21T07:58:39;101528.78;;;7.45;100.00
74659;BME280;63186;51.204;6.536;2024-02-21T08:01:04;101523.84;;;7.47;100.00
74659;BME280;63186;51.204;6.536;2024-02-21T08:03:30;101516.16;;;7.49;100.00
74659;BME280;63186;51.204;6.536;2024-02-21T08:05:55;101517.84;;;7.50;100.00
74659;BME280;63186;51.204;6.536;2024-02-21T08:08:20;101512.63;;;7.54;100.00
74659;BME280;63186;51.204;6.536;2024-02-21T08:10:48;101503.31;;;7.55;100.00
74659;BME280;63186;51.204;6.536;2024-02-21T08:13:13;101490.69;;;7.54;100.00
74659;BME280;63186;51.204;6.536;2024-02-21T08:15:39;101495.66;;;7.57;100.00
74659;BME280;63186;51.204;6.536;2024-02-21T08:18:07;101483.03;;;7.61;100.00
74659;BME280;63186;51.204;6.536;2024-02-21T08:20:32;101477.56;;;7.61;100.00
74659;BME280;63186;51.204;6.536;2024-02-21T08:22:58;101476.19;;;7.64;100.00
74659;BME280;63186;51.204;6.536;2024-02-21T08:25:23;101464.41;;;7.68;100.00
74659;BME280;63186;51.204;6.536;2024-02-21T08:27:48;101465.22;;;7.69;100.00
74659;BME280;63186;51.204;6.536;2024-02-21T08:30:14;101464.41;;;7.73;100.00
74659;BME280;63186;51.204;6.536;2024-02-21T08:32:39;101457.28;;;7.77;100.00
74659;BME280;63186;51.204;6.536;2024-02-21T08:35:05;101461.38;;;7.85;100.00
74659;BME280;63186;51.204;6.536;2024-02-21T08:37:31;101456.44;;;7.82;100.00
74659;BME280;63186;51.204;6.536;2024-02-21T08:39:56;101447.41;;;7.81;100.00
74659;BME280;63186;51.204;6.536;2024-02-21T08:42:21;101460.84;;;7.83;100.00
74659;BME280;63186;51.204;6.536;2024-02-21T08:44:47;101450.41;;;7.85;100.00
74659;BME280;63186;51.204;6.536;2024-02-21T08:47:12;101445.19;;;7.88;100.00
74659;BME280;63186;51.204;6.536;2024-02-21T08:49:38;101431.47;;;7.99;100.00
74659;BME280;63186;51.204;6.536;2024-02-21T08:52:03;101427.88;;;8.08;100.00
74659;BME280;63186;51.204;6.536;2024-02-21T08:54:29;101428.69;;;8.19;100.00
74659;BME280;63186;51.204;6.536;2024-02-21T08:56:54;101421.56;;;8.18;100.00
74659;BME280;63186;51.204;6.536;2024-02-21T08:59:20;101421.84;;;8.16;100.00
74659;BME280;63186;51.204;6.536;2024-02-21T09:01:46;101400.44;;;8.13;100.00
74659;BME280;63186;51.204;6.536;2024-02-21T09:04:11;101399.91;;;8.22;100.00
74659;BME280;63186;51.204;6.536;2024-02-21T09:06:37;101402.91;;;8.20;100.00
74659;BME280;63186;51.204;6.536;2024-02-21T09:09:07;101402.91;;;8.20;100.00
74659;BME280;63186;51.204;6.536;2024-02-21T09:11:33;101395.78;;;8.19;100.00
74659;BME280;63186;51.204;6.536;2024-02-21T09:13:59;101401.25;;;8.19;100.00
74659;BME280;63186;51.204;6.536;2024-02-21T09:16:24;101398.53;;;8.19;100.00
74659;BME280;63186;51.204;6.536;2024-02-21T09:18:50;101387.00;;;8.22;100.00
74659;BME280;63186;51.204;6.536;2024-02-21T09:21:15;101389.75;;;8.22;100.00
74659;BME280;63186;51.204;6.536;2024-02-21T09:23:40;101386.16;;;8.27;100.00
74659;BME280;63186;51.204;6.536;2024-02-21T09:26:06;101369.97;;;8.30;100.00
74659;BME280;63186;51.204;6.536;2024-02-21T09:28:31;101377.63;;;8.38;100.00
74659;BME280;63186;51.204;6.536;2024-02-21T09:30:58;101367.47;;;8.39;100.00
74659;BME280;63186;51.204;6.536;2024-02-21T09:33:23;101361.44;;;8.42;100.00
74659;BME280;63186;51.204;6.536;2024-02-21T09:35:48;101358.69;;;8.42;100.00
74659;BME280;63186;51.204;6.536;2024-02-21T09:38:14;101348.25;;;8.44;100.00
74659;BME280;63186;51.204;6.536;2024-02-21T09:40:40;101351.53;;;8.46;100.00
74659;BME280;63186;51.204;6.536;2024-02-21T09:43:07;101348.53;;;8.48;100.00
74659;BME280;63186;51.204;6.536;2024-02-21T09:45:33;101341.06;;;8.53;100.00
74659;BME280;63186;51.204;6.536;2024-02-21T09:48:23;101348.22;;;8.54;100.00
74659;BME280;63186;51.204;6.536;2024-02-21T09:50:51;101342.97;;;8.58;100.00
74659;BME280;63186;51.204;6.536;2024-02-21T09:53:18;101343.69;;;8.74;100.00
74659;BME280;63186;51.204;6.536;2024-02-21T09:55:45;101350.50;;;8.81;100.00
74659;BME280;63186;51.204;6.536;2024-02-21T09:58:11;101342.22;;;8.86;100.00
74659;BME280;63186;51.204;6.536;2024-02-21T10:00:36;101344.94;;;8.91;100.00
74659;BME280;63186;51.204;6.536;2024-02-21T10:03:03;101340.81;;;8.94;100.00
74659;BME280;63186;51.204;6.536;2024-02-21T10:05:34;101340.31;;;8.87;100.00
74659;BME280;63186;51.204;6.536;2024-02-21T10:08:01;101336.22;;;8.79;100.00
74659;BME280;63186;51.204;6.536;2024-02-21T10:10:26;101340.91;;;8.79;100.00
74659;BME280;63186;51.204;6.536;2024-02-21T10:12:53;101339.75;;;8.85;100.00
74659;BME280;63186;51.204;6.536;2024-02-21T10:15:23;101329.56;;;8.90;100.00
74659;BME280;63186;51.204;6.536;2024-02-21T10:17:58;101328.47;;;8.91;100.00
74659;BME280;63186;51.204;6.536;2024-02-21T10:20:24;101326.50;;;8.97;100.00
74659;BME280;63186;51.204;6.536;2024-02-21T10:23:00;101323.91;;;9.11;100.00
74659;BME280;63186;51.204;6.536;2024-02-21T10:25:27;101319.69;;;9.23;100.00
74659;BME280;63186;51.204;6.536;2024-02-21T10:27:52;101315.28;;;9.28;98.79
74659;BME280;63186;51.204;6.536;2024-02-21T10:30:17;101305.28;;;9.37;100.00
74659;BME280;63186;51.204;6.536;2024-02-21T10:32:50;101298.34;;;9.44;100.00
74659;BME280;63186;51.204;6.536;2024-02-21T10:35:28;101297.56;;;9.39;100.00
74659;BME280;63186;51.204;6.536;2024-02-21T10:37:57;101293.19;;;9.38;100.00
74659;BME280;63186;51.204;6.536;2024-02-21T10:40:24;101284.13;;;9.37;100.00
74659;BME280;63186;51.204;6.536;2024-02-21T10:42:54;101280.84;;;9.35;100.00
74659;BME280;63186;51.204;6.536;2024-02-21T10:45:21;101264.88;;;9.37;100.00
74659;BME280;63186;51.204;6.536;2024-02-21T10:47:51;101265.34;;;9.44;100.00
74659;BME280;63186;51.204;6.536;2024-02-21T10:50:21;101258.13;;;9.54;100.00
74659;BME280;63186;51.204;6.536;2024-02-21T10:53:20;101249.22;;;9.62;95.79
74659;BME280;63186;51.204;6.536;2024-02-21T10:55:58;101250.09;;;9.81;100.00
74659;BME280;63186;51.204;6.536;2024-02-21T10:58:24;101244.13;;;9.98;95.52
74659;BME280;63186;51.204;6.536;2024-02-21T11:00:51;101237.59;;;10.13;97.92
74659;BME280;63186;51.204;6.536;2024-02-21T11:03:16;101226.53;;;10.18;98.13
74659;BME280;63186;51.204;6.536;2024-02-21T11:05:42;101207.44;;;10.26;97.49
74659;BME280;63186;51.204;6.536;2024-02-21T11:08:11;101204.00;;;10.35;96.96
74659;BME280;63186;51.204;6.536;2024-02-21T11:10:37;101189.06;;;10.41;95.36
74659;BME280;63186;51.204;6.536;2024-02-21T11:13:06;101178.03;;;10.41;91.12
74659;BME280;63186;51.204;6.536;2024-02-21T11:15:32;101187.66;;;10.43;93.03
74659;BME280;63186;51.204;6.536;2024-02-21T11:17:58;101180.28;;;10.39;93.64
74659;BME280;63186;51.204;6.536;2024-02-21T11:20:32;101174.56;;;10.35;90.76
74659;BME280;63186;51.204;6.536;2024-02-21T11:22:59;101156.34;;;10.39;94.93
74659;BME280;63186;51.204;6.536;2024-02-21T11:25:26;101141.16;;;10.42;96.01
74659;BME280;63186;51.204;6.536;2024-02-21T11:27:59;101129.84;;;10.43;92.75
74659;BME280;63186;51.204;6.536;2024-02-21T11:30:31;101117.81;;;10.39;92.57
74659;BME280;63186;51.204;6.536;2024-02-21T11:33:05;101101.44;;;10.29;92.80
74659;BME280;63186;51.204;6.536;2024-02-21T11:35:34;101107.06;;;10.24;92.74
74659;BME280;63186;51.204;6.536;2024-02-21T11:38:10;101098.81;;;10.24;93.07
74659;BME280;63186;51.204;6.536;2024-02-21T11:40:38;101092.31;;;10.33;94.48
74659;BME280;63186;51.204;6.536;2024-02-21T11:43:05;101096.91;;;10.38;92.08
74659;BME280;63186;51.204;6.536;2024-02-21T11:45:30;101081.69;;;10.27;92.89
74659;BME280;63186;51.204;6.536;2024-02-21T11:47:57;101069.41;;;10.19;91.48
74659;BME280;63186;51.204;6.536;2024-02-21T11:50:26;101053.97;;;10.04;93.56
74659;BME280;63186;51.204;6.536;2024-02-21T11:52:54;101037.25;;;10.01;88.61
74659;BME280;63186;51.204;6.536;2024-02-21T11:55:19;101032.66;;;10.10;91.44
74659;BME280;63186;51.204;6.536;2024-02-21T11:57:44;101043.69;;;10.10;92.08
74659;BME280;63186;51.204;6.536;2024-02-21T12:00:18;101043.56;;;10.01;89.05
74659;BME280;63186;51.204;6.536;2024-02-21T12:02:45;101029.06;;;9.96;90.81
74659;BME280;63186;51.204;6.536;2024-02-21T12:05:11;101026.78;;;10.17;89.97
74659;BME280;63186;51.204;6.536;2024-02-21T12:07:37;101017.63;;;10.21;91.27
74659;BME280;63186;51.204;6.536;2024-02-21T12:10:06;101025.75;;;10.31;87.21
74659;BME280;63186;51.204;6.536;2024-02-21T12:12:32;101018.41;;;10.41;89.63
74659;BME280;63186;51.204;6.536;2024-02-21T12:15:01;101017.09;;;10.38;86.25
74659;BME280;63186;51.204;6.536;2024-02-21T12:17:26;101001.50;;;10.33;88.71
74659;BME280;63186;51.204;6.536;2024-02-21T12:19:52;100984.09;;;10.52;88.12
74659;BME280;63186;51.204;6.536;2024-02-21T12:22:20;101000.50;;;10.71;88.38
74659;BME280;63186;51.204;6.536;2024-02-21T12:24:45;100993.97;;;10.94;83.81
74659;BME280;63186;51.204;6.536;2024-02-21T12:27:12;100990.91;;;11.09;83.43
74659;BME280;63186;51.204;6.536;2024-02-21T12:29:38;100989.13;;;11.13;84.68
74659;BME280;63186;51.204;6.536;2024-02-21T12:32:03;100995.16;;;11.16;84.49
74659;BME280;63186;51.204;6.536;2024-02-21T12:34:29;100976.88;;;11.20;85.58
74659;BME280;63186;51.204;6.536;2024-02-21T12:36:58;100966.50;;;11.17;83.94
74659;BME280;63186;51.204;6.536;2024-02-21T12:39:23;100965.25;;;11.23;86.48
74659;BME280;63186;51.204;6.536;2024-02-21T12:41:48;100964.56;;;11.39;84.83
74659;BME280;63186;51.204;6.536;2024-02-21T12:44:14;100948.34;;;11.38;84.08
74659;BME280;63186;51.204;6.536;2024-02-21T12:46:41;100939.06;;;11.34;79.55